Bartom's Hill, United Kingdom
Current Conditions -  °F | °C
As of 7:20 PM on Sunday 21 Dec 2014 (Local Time) from EGHH Reporting Station
Broken Clouds Broken Clouds  
Wind Chill: 52°   Ceiling: 800
Heat Index: 52°   Visibility: 4mi
Dew Point: 50°   Wind: 16mph
Humidity: 94%   Direction: 240°WSW
Pressure: 30.27"   Gusts: NA
Location:  50.73°N, 2.02°W
Report Text: EGHH 211920Z 24014KT 6000 BKN008 BKN019 11/10 Q1025
Loading
Personal Weather Stations






























Interactive Weather Map New forecast layout! Learn more

10-Day Weather Forecast

Advertisements
Track Severe Weather on mobile